sensor_id;sensor_type;location;lat;lon;timestamp;temperature;humidity
22526;DHT22;11429;50.842;4.386;2022-09-17T00:00:15;11.60;99.90
22526;DHT22;11429;50.842;4.386;2022-09-17T00:02:42;11.70;99.90
22526;DHT22;11429;50.842;4.386;2022-09-17T00:05:10;11.70;99.90
22526;DHT22;11429;50.842;4.386;2022-09-17T00:07:36;11.50;99.90
22526;DHT22;11429;50.842;4.386;2022-09-17T00:10:03;11.30;99.90
22526;DHT22;11429;50.842;4.386;2022-09-17T00:12:30;11.20;99.90
22526;DHT22;11429;50.842;4.386;2022-09-17T00:14:56;11.30;99.90
22526;DHT22;11429;50.842;4.386;2022-09-17T00:17:22;11.40;99.90
22526;DHT22;11429;50.842;4.386;2022-09-17T00:19:48;11.60;99.90
22526;DHT22;11429;50.842;4.386;2022-09-17T00:22:14;11.60;99.90
22526;DHT22;11429;50.842;4.386;2022-09-17T00:24:40;11.50;99.90
22526;DHT22;11429;50.842;4.386;2022-09-17T00:27:06;11.40;99.90
22526;DHT22;11429;50.842;4.386;2022-09-17T00:29:32;11.40;99.90
22526;DHT22;11429;50.842;4.386;2022-09-17T00:31:58;11.30;99.90
22526;DHT22;11429;50.842;4.386;2022-09-17T00:34:23;11.30;99.90
22526;DHT22;11429;50.842;4.386;2022-09-17T00:36:49;11.20;99.90
22526;DHT22;11429;50.842;4.386;2022-09-17T00:39:15;11.40;99.90
22526;DHT22;11429;50.842;4.386;2022-09-17T00:41:41;11.30;99.90
22526;DHT22;11429;50.842;4.386;2022-09-17T00:49:45;11.40;99.90
22526;DHT22;11429;50.842;4.386;2022-09-17T00:52:16;11.40;99.90
22526;DHT22;11429;50.842;4.386;2022-09-17T00:54:45;11.30;99.90
22526;DHT22;11429;50.842;4.386;2022-09-17T00:57:14;11.40;99.90
22526;DHT22;11429;50.842;4.386;2022-09-17T00:59:40;11.40;99.90
22526;DHT22;11429;50.842;4.386;2022-09-17T01:02:06;11.50;99.90
22526;DHT22;11429;50.842;4.386;2022-09-17T01:04:33;11.70;99.90
22526;DHT22;11429;50.842;4.386;2022-09-17T01:09:58;12.00;99.90
22526;DHT22;11429;50.842;4.386;2022-09-17T01:18:21;11.50;99.90
22526;DHT22;11429;50.842;4.386;2022-09-17T01:29:18;11.60;99.90
22526;DHT22;11429;50.842;4.386;2022-09-17T01:32:07;11.40;99.90
22526;DHT22;11429;50.842;4.386;2022-09-17T01:34:48;11.50;99.90
22526;DHT22;11429;50.842;4.386;2022-09-17T01:37:35;11.60;99.90
22526;DHT22;11429;50.842;4.386;2022-09-17T01:40:11;11.70;99.90
22526;DHT22;11429;50.842;4.386;2022-09-17T01:48:20;11.60;99.90
22526;DHT22;11429;50.842;4.386;2022-09-17T01:51:03;11.60;99.90
22526;DHT22;11429;50.842;4.386;2022-09-17T01:53:46;11.80;99.90
22526;DHT22;11429;50.842;4.386;2022-09-17T01:56:15;11.80;99.90
22526;DHT22;11429;50.842;4.386;2022-09-17T01:58:51;11.80;99.90
22526;DHT22;11429;50.842;4.386;2022-09-17T02:01:21;11.90;99.90
22526;DHT22;11429;50.842;4.386;2022-09-17T02:04:00;12.10;99.90
22526;DHT22;11429;50.842;4.386;2022-09-17T02:06:34;12.30;99.90
22526;DHT22;11429;50.842;4.386;2022-09-17T02:09:09;12.10;99.90
22526;DHT22;11429;50.842;4.386;2022-09-17T02:11:38;12.10;99.90
22526;DHT22;11429;50.842;4.386;2022-09-17T02:14:20;11.90;99.90
22526;DHT22;11429;50.842;4.386;2022-09-17T02:16:52;11.70;99.90
22526;DHT22;11429;50.842;4.386;2022-09-17T02:19:25;11.70;99.90
22526;DHT22;11429;50.842;4.386;2022-09-17T02:22:00;11.60;99.90
22526;DHT22;11429;50.842;4.386;2022-09-17T02:30:06;11.70;99.90
22526;DHT22;11429;50.842;4.386;2022-09-17T02:32:32;11.70;99.90
22526;DHT22;11429;50.842;4.386;2022-09-17T02:34:58;11.70;99.90
22526;DHT22;11429;50.842;4.386;2022-09-17T02:37:24;11.70;99.90
22526;DHT22;11429;50.842;4.386;2022-09-17T02:39:49;11.60;99.90
22526;DHT22;11429;50.842;4.386;2022-09-17T02:46:06;11.40;99.90
22526;DHT22;11429;50.842;4.386;2022-09-17T02:53:55;11.30;99.90
22526;DHT22;11429;50.842;4.386;2022-09-17T02:59:15;11.60;99.90
22526;DHT22;11429;50.842;4.386;2022-09-17T03:01:51;11.80;99.90
22526;DHT22;11429;50.842;4.386;2022-09-17T03:04:18;11.80;99.90
22526;DHT22;11429;50.842;4.386;2022-09-17T03:06:46;11.80;99.90
22526;DHT22;11429;50.842;4.386;2022-09-17T03:09:13;12.20;99.90
22526;DHT22;11429;50.842;4.386;2022-09-17T03:11:39;12.10;99.90
22526;DHT22;11429;50.842;4.386;2022-09-17T03:14:05;12.00;99.90
22526;DHT22;11429;50.842;4.386;2022-09-17T03:16:31;12.00;99.90
22526;DHT22;11429;50.842;4.386;2022-09-17T03:18:56;11.90;99.90
22526;DHT22;11429;50.842;4.386;2022-09-17T03:21:22;11.70;99.90
22526;DHT22;11429;50.842;4.386;2022-09-17T03:23:48;11.30;99.90
22526;DHT22;11429;50.842;4.386;2022-09-17T03:26:13;11.30;99.90
22526;DHT22;11429;50.842;4.386;2022-09-17T03:28:39;11.40;99.90
22526;DHT22;11429;50.842;4.386;2022-09-17T03:31:05;11.40;99.90
22526;DHT22;11429;50.842;4.386;2022-09-17T03:33:31;11.50;99.90
22526;DHT22;11429;50.842;4.386;2022-09-17T03:35:57;11.40;99.90
22526;DHT22;11429;50.842;4.386;2022-09-17T03:38:22;11.40;99.90
22526;DHT22;11429;50.842;4.386;2022-09-17T03:41:03;11.20;99.90
22526;DHT22;11429;50.842;4.386;2022-09-17T03:43:29;11.10;99.90
22526;DHT22;11429;50.842;4.386;2022-09-17T03:45:55;11.10;99.90
22526;DHT22;11429;50.842;4.386;2022-09-17T03:48:21;11.00;99.90
22526;DHT22;11429;50.842;4.386;2022-09-17T03:50:47;10.90;99.90
22526;DHT22;11429;50.842;4.386;2022-09-17T03:53:13;10.90;99.90
22526;DHT22;11429;50.842;4.386;2022-09-17T03:55:39;10.80;99.90
22526;DHT22;11429;50.842;4.386;2022-09-17T03:58:05;10.70;99.90
22526;DHT22;11429;50.842;4.386;2022-09-17T04:00:31;10.80;99.90
22526;DHT22;11429;50.842;4.386;2022-09-17T04:02:57;10.90;99.90
22526;DHT22;11429;50.842;4.386;2022-09-17T04:05:22;11.00;99.90
22526;DHT22;11429;50.842;4.386;2022-09-17T04:07:48;10.90;99.90
22526;DHT22;11429;50.842;4.386;2022-09-17T04:10:14;10.90;99.90
22526;DHT22;11429;50.842;4.386;2022-09-17T04:12:40;10.80;99.90
22526;DHT22;11429;50.842;4.386;2022-09-17T04:15:06;10.90;99.90
22526;DHT22;11429;50.842;4.386;2022-09-17T04:17:32;10.90;99.90
22526;DHT22;11429;50.842;4.386;2022-09-17T04:19:58;11.00;99.90
22526;DHT22;11429;50.842;4.386;2022-09-17T04:22:24;10.90;99.90
22526;DHT22;11429;50.842;4.386;2022-09-17T04:24:50;10.80;99.90
22526;DHT22;11429;50.842;4.386;2022-09-17T04:27:16;10.70;99.90
22526;DHT22;11429;50.842;4.386;2022-09-17T04:29:42;10.90;99.90
22526;DHT22;11429;50.842;4.386;2022-09-17T04:32:07;10.90;99.90
22526;DHT22;11429;50.842;4.386;2022-09-17T04:34:33;10.90;99.90
22526;DHT22;11429;50.842;4.386;2022-09-17T04:36:59;10.90;99.90
22526;DHT22;11429;50.842;4.386;2022-09-17T04:39:25;11.00;99.90
22526;DHT22;11429;50.842;4.386;2022-09-17T04:41:50;10.80;99.90
22526;DHT22;11429;50.842;4.386;2022-09-17T04:44:16;10.70;99.90
22526;DHT22;11429;50.842;4.386;2022-09-17T04:46:42;10.70;99.90
22526;DHT22;11429;50.842;4.386;2022-09-17T04:49:07;10.60;99.90
22526;DHT22;11429;50.842;4.386;2022-09-17T04:51:33;10.60;99.90
22526;DHT22;11429;50.842;4.386;2022-09-17T04:53:59;10.60;99.90
22526;DHT22;11429;50.842;4.386;2022-09-17T04:56:24;10.60;99.90
22526;DHT22;11429;50.842;4.386;2022-09-17T04:58:50;10.60;99.90
22526;DHT22;11429;50.842;4.386;2022-09-17T05:01:16;10.60;99.90
22526;DHT22;11429;50.842;4.386;2022-09-17T05:03:44;10.70;99.90
22526;DHT22;11429;50.842;4.386;2022-09-17T05:06:10;10.90;99.90
22526;DHT22;11429;50.842;4.386;2022-09-17T05:08:35;11.00;99.90
22526;DHT22;11429;50.842;4.386;2022-09-17T05:11:02;11.10;99.90
22526;DHT22;11429;50.842;4.386;2022-09-17T05:13:28;10.90;99.90
22526;DHT22;11429;50.842;4.386;2022-09-17T05:15:54;10.80;99.90
22526;DHT22;11429;50.842;4.386;2022-09-17T05:18:23;11.00;99.90
22526;DHT22;11429;50.842;4.386;2022-09-17T05:20:50;11.00;99.90
22526;DHT22;11429;50.842;4.386;2022-09-17T05:23:16;11.10;99.90
22526;DHT22;11429;50.842;4.386;2022-09-17T05:25:42;11.20;99.90
22526;DHT22;11429;50.842;4.386;2022-09-17T05:28:08;11.10;99.90
22526;DHT22;11429;50.842;4.386;2022-09-17T05:30:33;11.10;99.90
22526;DHT22;11429;50.842;4.386;2022-09-17T05:33:04;11.20;99.90
22526;DHT22;11429;50.842;4.386;2022-09-17T05:35:32;11.30;99.90
22526;DHT22;11429;50.842;4.386;2022-09-17T05:38:03;11.40;99.90
22526;DHT22;11429;50.842;4.386;2022-09-17T05:40:30;11.30;99.90
22526;DHT22;11429;50.842;4.386;2022-09-17T05:43:01;11.40;99.90
22526;DHT22;11429;50.842;4.386;2022-09-17T05:45:28;11.50;99.90
22526;DHT22;11429;50.842;4.386;2022-09-17T05:47:59;11.30;99.90
22526;DHT22;11429;50.842;4.386;2022-09-17T05:50:26;11.10;99.90
22526;DHT22;11429;50.842;4.386;2022-09-17T05:52:52;11.00;99.90
22526;DHT22;11429;50.842;4.386;2022-09-17T05:55:19;10.90;99.90
22526;DHT22;11429;50.842;4.386;2022-09-17T05:57:47;10.90;99.90
22526;DHT22;11429;50.842;4.386;2022-09-17T06:00:13;10.90;99.90
22526;DHT22;11429;50.842;4.386;2022-09-17T06:02:39;10.90;99.90
22526;DHT22;11429;50.842;4.386;2022-09-17T06:05:05;11.00;99.90
22526;DHT22;11429;50.842;4.386;2022-09-17T06:07:34;11.20;99.90
22526;DHT22;11429;50.842;4.386;2022-09-17T06:10:00;11.40;99.90
22526;DHT22;11429;50.842;4.386;2022-09-17T06:12:25;11.50;99.90
22526;DHT22;11429;50.842;4.386;2022-09-17T06:14:51;11.50;99.90
22526;DHT22;11429;50.842;4.386;2022-09-17T06:17:17;11.70;99.90
22526;DHT22;11429;50.842;4.386;2022-09-17T06:19:43;11.90;99.90
22526;DHT22;11429;50.842;4.386;2022-09-17T06:22:08;11.90;99.90
22526;DHT22;11429;50.842;4.386;2022-09-17T06:24:34;11.70;99.90
22526;DHT22;11429;50.842;4.386;2022-09-17T06:27:00;11.70;99.90
22526;DHT22;11429;50.842;4.386;2022-09-17T06:29:28;11.50;99.90
22526;DHT22;11429;50.842;4.386;2022-09-17T06:31:55;11.50;99.90
22526;DHT22;11429;50.842;4.386;2022-09-17T06:34:20;11.70;99.90
22526;DHT22;11429;50.842;4.386;2022-09-17T06:36:47;12.00;99.90
22526;DHT22;11429;50.842;4.386;2022-09-17T06:39:14;12.30;99.90
22526;DHT22;11429;50.842;4.386;2022-09-17T06:41:43;12.20;99.90
22526;DHT22;11429;50.842;4.386;2022-09-17T06:44:09;12.30;99.90
22526;DHT22;11429;50.842;4.386;2022-09-17T06:46:35;12.30;99.90
22526;DHT22;11429;50.842;4.386;2022-09-17T06:49:00;12.40;99.90
22526;DHT22;11429;50.842;4.386;2022-09-17T06:51:26;12.30;99.90
22526;DHT22;11429;50.842;4.386;2022-09-17T06:53:52;12.40;99.90
22526;DHT22;11429;50.842;4.386;2022-09-17T06:56:18;12.40;99.90
22526;DHT22;11429;50.842;4.386;2022-09-17T06:58:43;12.30;99.90
22526;DHT22;11429;50.842;4.386;2022-09-17T07:01:10;12.30;99.90
22526;DHT22;11429;50.842;4.386;2022-09-17T07:03:36;12.50;99.90
22526;DHT22;11429;50.842;4.386;2022-09-17T07:06:03;12.70;99.90
22526;DHT22;11429;50.842;4.386;2022-09-17T07:08:31;13.00;99.90
22526;DHT22;11429;50.842;4.386;2022-09-17T07:10:58;13.00;99.90
22526;DHT22;11429;50.842;4.386;2022-09-17T07:13:25;13.20;99.90
22526;DHT22;11429;50.842;4.386;2022-09-17T07:15:55;13.40;99.90
22526;DHT22;11429;50.842;4.386;2022-09-17T07:18:22;13.40;99.90
22526;DHT22;11429;50.842;4.386;2022-09-17T07:20:59;13.00;99.90
22526;DHT22;11429;50.842;4.386;2022-09-17T07:23:33;12.70;99.90
22526;DHT22;11429;50.842;4.386;2022-09-17T07:26:02;12.70;99.90
22526;DHT22;11429;50.842;4.386;2022-09-17T07:28:28;12.70;99.90
22526;DHT22;11429;50.842;4.386;2022-09-17T07:30:55;12.60;99.90
22526;DHT22;11429;50.842;4.386;2022-09-17T07:33:23;12.70;99.90
22526;DHT22;11429;50.842;4.386;2022-09-17T07:36:00;12.60;99.90
22526;DHT22;11429;50.842;4.386;2022-09-17T07:38:26;12.30;99.90
22526;DHT22;11429;50.842;4.386;2022-09-17T07:41:03;12.10;99.90
22526;DHT22;11429;50.842;4.386;2022-09-17T07:43:31;12.70;99.90
22526;DHT22;11429;50.842;4.386;2022-09-17T07:45:58;12.90;99.90
22526;DHT22;11429;50.842;4.386;2022-09-17T07:48:24;13.00;99.90
22526;DHT22;11429;50.842;4.386;2022-09-17T07:50:50;12.90;99.90
22526;DHT22;11429;50.842;4.386;2022-09-17T07:53:16;12.90;99.90
22526;DHT22;11429;50.842;4.386;2022-09-17T07:58:19;13.60;99.90
22526;DHT22;11429;50.842;4.386;2022-09-17T08:00:45;13.10;99.90
22526;DHT22;11429;50.842;4.386;2022-09-17T08:03:10;13.50;99.90
22526;DHT22;11429;50.842;4.386;2022-09-17T08:05:36;13.70;99.90
22526;DHT22;11429;50.842;4.386;2022-09-17T08:08:02;13.60;99.90
22526;DHT22;11429;50.842;4.386;2022-09-17T08:10:28;13.90;99.90
22526;DHT22;11429;50.842;4.386;2022-09-17T08:12:56;14.00;99.90
22526;DHT22;11429;50.842;4.386;2022-09-17T08:15:23;13.80;99.90
22526;DHT22;11429;50.842;4.386;2022-09-17T08:17:50;13.60;99.90
22526;DHT22;11429;50.842;4.386;2022-09-17T08:20:16;13.70;99.90
22526;DHT22;11429;50.842;4.386;2022-09-17T08:22:42;13.50;99.90
22526;DHT22;11429;50.842;4.386;2022-09-17T08:25:17;13.70;99.90
22526;DHT22;11429;50.842;4.386;2022-09-17T08:27:42;13.60;99.90
22526;DHT22;11429;50.842;4.386;2022-09-17T08:30:08;13.50;99.90
22526;DHT22;11429;50.842;4.386;2022-09-17T08:32:34;13.60;99.90
22526;DHT22;11429;50.842;4.386;2022-09-17T08:35:00;13.60;99.90
22526;DHT22;11429;50.842;4.386;2022-09-17T08:37:27;13.80;99.90
22526;DHT22;11429;50.842;4.386;2022-09-17T08:39:56;14.30;99.90
22526;DHT22;11429;50.842;4.386;2022-09-17T08:42:36;14.50;99.90
22526;DHT22;11429;50.842;4.386;2022-09-17T08:45:10;15.00;99.90
22526;DHT22;11429;50.842;4.386;2022-09-17T08:47:41;15.30;99.90
22526;DHT22;11429;50.842;4.386;2022-09-17T08:50:23;15.60;99.90
22526;DHT22;11429;50.842;4.386;2022-09-17T09:00:52;14.60;99.90
22526;DHT22;11429;50.842;4.386;2022-09-17T09:06:14;14.90;99.90
22526;DHT22;11429;50.842;4.386;2022-09-17T09:08:41;14.70;99.90
22526;DHT22;11429;50.842;4.386;2022-09-17T09:11:29;14.90;99.90
22526;DHT22;11429;50.842;4.386;2022-09-17T09:14:26;15.10;99.90
22526;DHT22;11429;50.842;4.386;2022-09-17T09:16:54;15.30;99.90
22526;DHT22;11429;50.842;4.386;2022-09-17T09:19:27;15.10;99.90
22526;DHT22;11429;50.842;4.386;2022-09-17T09:25:03;14.20;99.90
22526;DHT22;11429;50.842;4.386;2022-09-17T09:27:55;14.40;99.90
22526;DHT22;11429;50.842;4.386;2022-09-17T09:30:30;14.90;99.90
22526;DHT22;11429;50.842;4.386;2022-09-17T09:33:12;14.70;99.90
22526;DHT22;11429;50.842;4.386;2022-09-17T09:35:41;14.80;99.90
22526;DHT22;11429;50.842;4.386;2022-09-17T09:41:16;14.70;99.90
22526;DHT22;11429;50.842;4.386;2022-09-17T09:46:15;14.80;99.90
22526;DHT22;11429;50.842;4.386;2022-09-17T09:54:36;15.20;99.90
22526;DHT22;11429;50.842;4.386;2022-09-17T09:57:10;15.20;99.90
22526;DHT22;11429;50.842;4.386;2022-09-17T09:59:37;15.70;99.90
22526;DHT22;11429;50.842;4.386;2022-09-17T10:02:03;17.20;99.90
22526;DHT22;11429;50.842;4.386;2022-09-17T10:04:29;17.60;99.90
22526;DHT22;11429;50.842;4.386;2022-09-17T10:07:08;18.10;99.90
22526;DHT22;11429;50.842;4.386;2022-09-17T10:09:36;17.90;99.90
22526;DHT22;11429;50.842;4.386;2022-09-17T10:14:37;17.60;99.90
22526;DHT22;11429;50.842;4.386;2022-09-17T10:19:39;16.60;99.90
22526;DHT22;11429;50.842;4.386;2022-09-17T10:22:25;16.70;99.90
22526;DHT22;11429;50.842;4.386;2022-09-17T10:24:55;16.30;99.90
22526;DHT22;11429;50.842;4.386;2022-09-17T10:27:23;16.20;99.90
22526;DHT22;11429;50.842;4.386;2022-09-17T10:32:32;15.60;99.90
22526;DHT22;11429;50.842;4.386;2022-09-17T10:37:47;15.60;99.90
22526;DHT22;11429;50.842;4.386;2022-09-17T10:40:28;15.70;99.90
22526;DHT22;11429;50.842;4.386;2022-09-17T10:45:53;15.60;99.90
22526;DHT22;11429;50.842;4.386;2022-09-17T10:48:21;15.60;99.90
22526;DHT22;11429;50.842;4.386;2022-09-17T10:50:49;15.40;99.90
22526;DHT22;11429;50.842;4.386;2022-09-17T10:53:16;15.50;99.90
22526;DHT22;11429;50.842;4.386;2022-09-17T10:56:21;15.60;99.90
22526;DHT22;11429;50.842;4.386;2022-09-17T11:07:43;15.90;99.90
22526;DHT22;11429;50.842;4.386;2022-09-17T11:10:28;16.20;99.90
22526;DHT22;11429;50.842;4.386;2022-09-17T11:13:20;16.20;99.90
22526;DHT22;11429;50.842;4.386;2022-09-17T11:16:15;15.50;99.90
22526;DHT22;11429;50.842;4.386;2022-09-17T11:18:46;15.70;99.90
22526;DHT22;11429;50.842;4.386;2022-09-17T11:24:18;15.90;99.90
22526;DHT22;11429;50.842;4.386;2022-09-17T11:30:04;15.30;99.90
22526;DHT22;11429;50.842;4.386;2022-09-17T11:35:35;15.10;99.90
22526;DHT22;11429;50.842;4.386;2022-09-17T11:41:21;14.80;99.90
22526;DHT22;11429;50.842;4.386;2022-09-17T11:46:47;14.90;99.90
22526;DHT22;11429;50.842;4.386;2022-09-17T11:49:41;15.00;99.90
22526;DHT22;11429;50.842;4.386;2022-09-17T11:52:25;14.90;99.90
22526;DHT22;11429;50.842;4.386;2022-09-17T11:57:33;14.60;99.90
22526;DHT22;11429;50.842;4.386;2022-09-17T12:02:41;14.80;99.90
22526;DHT22;11429;50.842;4.386;2022-09-17T12:05:51;15.00;99.90
22526;DHT22;11429;50.842;4.386;2022-09-17T12:08:23;15.40;99.90
22526;DHT22;11429;50.842;4.386;2022-09-17T12:11:06;15.70;99.90
22526;DHT22;11429;50.842;4.386;2022-09-17T12:13:48;15.60;99.90
22526;DHT22;11429;50.842;4.386;2022-09-17T12:19:19;15.90;99.90
22526;DHT22;11429;50.842;4.386;2022-09-17T12:21:50;16.10;99.90
22526;DHT22;11429;50.842;4.386;2022-09-17T12:24:28;16.00;99.90
22526;DHT22;11429;50.842;4.386;2022-09-17T12:35:25;16.20;99.90
22526;DHT22;11429;50.842;4.386;2022-09-17T12:43:42;15.70;99.90
22526;DHT22;11429;50.842;4.386;2022-09-17T12:51:34;15.50;99.90
22526;DHT22;11429;50.842;4.386;2022-09-17T13:05:52;14.80;99.90
22526;DHT22;11429;50.842;4.386;2022-09-17T13:13:55;14.20;99.90
22526;DHT22;11429;50.842;4.386;2022-09-17T13:16:52;14.00;99.90
22526;DHT22;11429;50.842;4.386;2022-09-17T13:22:03;13.70;99.90
22526;DHT22;11429;50.842;4.386;2022-09-17T13:24:32;13.40;99.90
22526;DHT22;11429;50.842;4.386;2022-09-17T13:27:02;13.10;99.90
22526;DHT22;11429;50.842;4.386;2022-09-17T13:37:42;13.80;99.90
22526;DHT22;11429;50.842;4.386;2022-09-17T13:45:29;13.70;99.90
22526;DHT22;11429;50.842;4.386;2022-09-17T13:48:02;13.80;99.90
22526;DHT22;11429;50.842;4.386;2022-09-17T13:50:40;14.10;99.90
22526;DHT22;11429;50.842;4.386;2022-09-17T13:55:42;14.70;99.90
22526;DHT22;11429;50.842;4.386;2022-09-17T13:58:20;14.70;99.90
22526;DHT22;11429;50.842;4.386;2022-09-17T14:19:28;15.40;99.90
22526;DHT22;11429;50.842;4.386;2022-09-17T14:22:23;15.30;99.90
22526;DHT22;11429;50.842;4.386;2022-09-17T14:24:53;15.30;99.90
22526;DHT22;11429;50.842;4.386;2022-09-17T14:35:47;15.80;99.90
22526;DHT22;11429;50.842;4.386;2022-09-17T14:41:00;15.40;99.90
22526;DHT22;11429;50.842;4.386;2022-09-17T14:43:51;14.80;99.90
22526;DHT22;11429;50.842;4.386;2022-09-17T14:46:29;14.60;99.90
22526;DHT22;11429;50.842;4.386;2022-09-17T14:51:45;13.80;99.90
22526;DHT22;11429;50.842;4.386;2022-09-17T14:54:23;13.50;99.90
22526;DHT22;11429;50.842;4.386;2022-09-17T14:59:50;13.60;99.90
22526;DHT22;11429;50.842;4.386;2022-09-17T15:02:38;14.00;99.90
22526;DHT22;11429;50.842;4.386;2022-09-17T15:05:34;14.10;99.90
22526;DHT22;11429;50.842;4.386;2022-09-17T15:13:31;14.40;99.90
22526;DHT22;11429;50.842;4.386;2022-09-17T15:16:13;14.40;99.90
22526;DHT22;11429;50.842;4.386;2022-09-17T15:18:42;14.40;99.90
22526;DHT22;11429;50.842;4.386;2022-09-17T15:23:55;14.30;99.90
22526;DHT22;11429;50.842;4.386;2022-09-17T15:26:28;14.60;99.90
22526;DHT22;11429;50.842;4.386;2022-09-17T15:28:57;14.50;99.90
22526;DHT22;11429;50.842;4.386;2022-09-17T15:31:23;14.30;99.90
22526;DHT22;11429;50.842;4.386;2022-09-17T15:33:50;14.20;99.90
22526;DHT22;11429;50.842;4.386;2022-09-17T15:36:26;14.20;99.90
22526;DHT22;11429;50.842;4.386;2022-09-17T15:38:53;14.10;99.90
22526;DHT22;11429;50.842;4.386;2022-09-17T15:41:35;14.00;99.90
22526;DHT22;11429;50.842;4.386;2022-09-17T15:44:12;14.00;99.90
22526;DHT22;11429;50.842;4.386;2022-09-17T15:46:39;14.20;99.90
22526;DHT22;11429;50.842;4.386;2022-09-17T15:49:34;14.20;99.90
22526;DHT22;11429;50.842;4.386;2022-09-17T15:52:29;14.00;99.90
22526;DHT22;11429;50.842;4.386;2022-09-17T15:54:59;14.10;99.90
22526;DHT22;11429;50.842;4.386;2022-09-17T15:57:28;14.10;99.90
22526;DHT22;11429;50.842;4.386;2022-09-17T15:59:55;14.10;99.90
22526;DHT22;11429;50.842;4.386;2022-09-17T16:02:26;14.30;99.90
22526;DHT22;11429;50.842;4.386;2022-09-17T16:07:37;14.20;99.90
22526;DHT22;11429;50.842;4.386;2022-09-17T16:10:03;14.00;99.90
22526;DHT22;11429;50.842;4.386;2022-09-17T16:12:29;13.90;99.90
22526;DHT22;11429;50.842;4.386;2022-09-17T16:14:57;13.90;99.90
22526;DHT22;11429;50.842;4.386;2022-09-17T16:20:06;13.80;99.90
22526;DHT22;11429;50.842;4.386;2022-09-17T16:22:33;13.70;99.90
22526;DHT22;11429;50.842;4.386;2022-09-17T16:24:59;13.70;99.90
22526;DHT22;11429;50.842;4.386;2022-09-17T16:27:27;13.70;99.90
22526;DHT22;11429;50.842;4.386;2022-09-17T16:30:05;13.80;99.90
22526;DHT22;11429;50.842;4.386;2022-09-17T16:32:34;14.00;99.90
22526;DHT22;11429;50.842;4.386;2022-09-17T16:34:59;14.00;99.90
22526;DHT22;11429;50.842;4.386;2022-09-17T16:37:25;13.90;99.90
22526;DHT22;11429;50.842;4.386;2022-09-17T16:39:51;13.90;99.90
22526;DHT22;11429;50.842;4.386;2022-09-17T16:42:17;13.90;99.90
22526;DHT22;11429;50.842;4.386;2022-09-17T16:44:43;13.90;99.90
22526;DHT22;11429;50.842;4.386;2022-09-17T16:47:09;13.80;99.90
22526;DHT22;11429;50.842;4.386;2022-09-17T16:49:35;13.80;99.90
22526;DHT22;11429;50.842;4.386;2022-09-17T16:52:00;13.90;99.90
22526;DHT22;11429;50.842;4.386;2022-09-17T16:54:26;13.70;99.90
22526;DHT22;11429;50.842;4.386;2022-09-17T16:56:52;13.60;99.90
22526;DHT22;11429;50.842;4.386;2022-09-17T16:59:18;13.70;99.90
22526;DHT22;11429;50.842;4.386;2022-09-17T17:01:44;13.70;99.90
22526;DHT22;11429;50.842;4.386;2022-09-17T17:04:09;13.50;99.90
22526;DHT22;11429;50.842;4.386;2022-09-17T17:06:39;13.30;99.90
22526;DHT22;11429;50.842;4.386;2022-09-17T17:09:05;13.60;99.90
22526;DHT22;11429;50.842;4.386;2022-09-17T17:11:32;13.80;99.90
22526;DHT22;11429;50.842;4.386;2022-09-17T17:13:57;14.00;99.90
22526;DHT22;11429;50.842;4.386;2022-09-17T17:16:40;13.90;99.90
22526;DHT22;11429;50.842;4.386;2022-09-17T17:19:09;13.80;99.90
22526;DHT22;11429;50.842;4.386;2022-09-17T17:21:35;13.80;99.90
22526;DHT22;11429;50.842;4.386;2022-09-17T17:24:01;13.80;99.90
22526;DHT22;11429;50.842;4.386;2022-09-17T17:26:27;13.70;99.90
22526;DHT22;11429;50.842;4.386;2022-09-17T17:28:53;13.50;99.90
22526;DHT22;11429;50.842;4.386;2022-09-17T17:31:18;13.70;99.90
22526;DHT22;11429;50.842;4.386;2022-09-17T17:33:44;13.60;99.90
22526;DHT22;11429;50.842;4.386;2022-09-17T17:36:10;13.40;99.90
22526;DHT22;11429;50.842;4.386;2022-09-17T17:38:37;13.40;99.90
22526;DHT22;11429;50.842;4.386;2022-09-17T17:41:07;13.40;99.90
22526;DHT22;11429;50.842;4.386;2022-09-17T17:43:34;13.60;99.90
22526;DHT22;11429;50.842;4.386;2022-09-17T17:46:00;13.50;99.90
22526;DHT22;11429;50.842;4.386;2022-09-17T17:48:26;13.50;99.90
22526;DHT22;11429;50.842;4.386;2022-09-17T17:50:52;13.60;99.90
22526;DHT22;11429;50.842;4.386;2022-09-17T17:53:18;13.60;99.90
22526;DHT22;11429;50.842;4.386;2022-09-17T17:55:54;13.60;99.90
22526;DHT22;11429;50.842;4.386;2022-09-17T17:58:21;13.50;99.90
22526;DHT22;11429;50.842;4.386;2022-09-17T18:00:46;13.40;99.90
22526;DHT22;11429;50.842;4.386;2022-09-17T18:03:12;13.40;99.90
22526;DHT22;11429;50.842;4.386;2022-09-17T18:05:38;13.40;99.90
22526;DHT22;11429;50.842;4.386;2022-09-17T18:08:04;13.50;99.90
22526;DHT22;11429;50.842;4.386;2022-09-17T18:10:30;13.40;99.90
22526;DHT22;11429;50.842;4.386;2022-09-17T18:12:55;13.20;99.90
22526;DHT22;11429;50.842;4.386;2022-09-17T18:15:21;13.20;99.90
22526;DHT22;11429;50.842;4.386;2022-09-17T18:17:47;13.10;99.90
22526;DHT22;11429;50.842;4.386;2022-09-17T18:20:14;13.10;99.90
22526;DHT22;11429;50.842;4.386;2022-09-17T18:22:40;13.10;99.90
22526;DHT22;11429;50.842;4.386;2022-09-17T18:25:06;13.10;99.90
22526;DHT22;11429;50.842;4.386;2022-09-17T18:27:32;13.20;99.90
22526;DHT22;11429;50.842;4.386;2022-09-17T18:29:57;13.30;99.90
22526;DHT22;11429;50.842;4.386;2022-09-17T18:32:23;13.20;99.90
22526;DHT22;11429;50.842;4.386;2022-09-17T18:34:49;13.00;99.90
22526;DHT22;11429;50.842;4.386;2022-09-17T18:37:15;13.20;99.90
22526;DHT22;11429;50.842;4.386;2022-09-17T18:39:40;13.20;99.90
22526;DHT22;11429;50.842;4.386;2022-09-17T18:42:06;13.20;99.90
22526;DHT22;11429;50.842;4.386;2022-09-17T18:44:32;13.00;99.90
22526;DHT22;11429;50.842;4.386;2022-09-17T18:46:58;13.10;99.90
22526;DHT22;11429;50.842;4.386;2022-09-17T18:49:23;12.90;99.90
22526;DHT22;11429;50.842;4.386;2022-09-17T18:51:49;12.90;99.90
22526;DHT22;11429;50.842;4.386;2022-09-17T18:54:15;12.80;99.90
22526;DHT22;11429;50.842;4.386;2022-09-17T18:56:41;12.80;99.90
22526;DHT22;11429;50.842;4.386;2022-09-17T18:59:06;12.70;99.90
22526;DHT22;11429;50.842;4.386;2022-09-17T19:01:33;12.80;99.90
22526;DHT22;11429;50.842;4.386;2022-09-17T19:03:58;12.80;99.90
22526;DHT22;11429;50.842;4.386;2022-09-17T19:06:26;12.90;99.90
22526;DHT22;11429;50.842;4.386;2022-09-17T19:08:52;13.00;99.90
22526;DHT22;11429;50.842;4.386;2022-09-17T19:11:21;13.10;99.90
22526;DHT22;11429;50.842;4.386;2022-09-17T19:13:47;13.10;99.90
22526;DHT22;11429;50.842;4.386;2022-09-17T19:16:16;13.20;99.90
22526;DHT22;11429;50.842;4.386;2022-09-17T19:18:42;13.00;99.90
22526;DHT22;11429;50.842;4.386;2022-09-17T19:21:11;13.10;99.90
22526;DHT22;11429;50.842;4.386;2022-09-17T19:23:45;13.20;99.90
22526;DHT22;11429;50.842;4.386;2022-09-17T19:26:19;13.00;99.90
22526;DHT22;11429;50.842;4.386;2022-09-17T19:28:45;13.00;99.90